createdAt,value
2023-02-13T00:01:07.111Z,4.00
2023-02-13T00:03:35.280Z,3.90
2023-02-13T00:06:03.274Z,4.00
2023-02-13T00:08:31.283Z,4.00
2023-02-13T00:10:59.535Z,4.10
2023-02-13T00:13:29.016Z,4.00
2023-02-13T00:15:58.441Z,4.00
2023-02-13T00:18:27.295Z,4.00
2023-02-13T00:20:59.608Z,4.00
2023-02-13T00:23:27.730Z,4.00
2023-02-13T00:25:55.851Z,4.00
2023-02-13T00:28:23.804Z,4.10
2023-02-13T00:30:53.199Z,4.10
2023-02-13T00:33:21.351Z,4.10
2023-02-13T00:35:49.257Z,4.10
2023-02-13T00:38:17.134Z,4.10
2023-02-13T00:40:47.489Z,4.10
2023-02-13T00:43:15.406Z,4.10
2023-02-13T00:45:44.154Z,4.10
2023-02-13T00:48:13.365Z,4.10
2023-02-13T00:50:41.304Z,4.10
2023-02-13T00:53:10.875Z,4.10
2023-02-13T00:55:39.118Z,4.20
2023-02-13T00:58:10.148Z,4.20
2023-02-13T01:00:38.199Z,4.20
2023-02-13T01:03:06.898Z,4.20
2023-02-13T01:05:36.639Z,4.20
2023-02-13T01:08:04.804Z,4.20
2023-02-13T01:10:33.248Z,4.20
2023-02-13T01:13:01.169Z,4.20
2023-02-13T01:15:29.198Z,4.30
2023-02-13T01:17:57.611Z,4.20
2023-02-13T01:20:27.715Z,4.20
2023-02-13T01:22:58.184Z,4.20
2023-02-13T01:25:27.548Z,4.20
2023-02-13T01:27:56.763Z,4.20
2023-02-13T01:30:24.658Z,4.20
2023-02-13T01:32:52.629Z,4.30
2023-02-13T01:35:20.716Z,4.30
2023-02-13T01:37:48.620Z,4.30
2023-02-13T01:40:18.379Z,4.30
2023-02-13T01:42:46.409Z,4.30
2023-02-13T01:45:26.480Z,4.30
2023-02-13T01:47:57.403Z,4.30
2023-02-13T01:50:31.990Z,4.30
2023-02-13T01:53:05.756Z,4.40
2023-02-13T01:55:36.539Z,4.40
2023-02-13T01:58:09.022Z,4.40
2023-02-13T02:00:37.820Z,4.50
2023-02-13T02:03:11.981Z,4.50
2023-02-13T02:05:40.822Z,4.50
2023-02-13T02:08:14.658Z,4.50
2023-02-13T02:10:44.629Z,4.50
2023-02-13T02:13:14.668Z,4.50
2023-02-13T02:15:43.991Z,4.50
2023-02-13T02:18:16.244Z,4.50
2023-02-13T02:21:15.627Z,4.60
2023-02-13T02:24:09.384Z,4.60
2023-02-13T02:27:12.173Z,4.60
2023-02-13T02:30:11.651Z,4.60
2023-02-13T02:32:58.628Z,4.60
2023-02-13T02:35:42.695Z,4.60
2023-02-13T02:38:22.298Z,4.60
2023-02-13T02:41:02.327Z,4.60
2023-02-13T02:43:49.727Z,4.60
2023-02-13T02:46:25.677Z,4.60
2023-02-13T02:49:22.841Z,4.60
2023-02-13T02:51:58.947Z,4.60
2023-02-13T02:55:05.910Z,4.60
2023-02-13T02:57:59.910Z,4.60
2023-02-13T03:00:47.883Z,4.60
2023-02-13T03:03:36.948Z,4.60
2023-02-13T03:06:14.209Z,4.60
2023-02-13T03:09:02.521Z,4.60
2023-02-13T03:11:48.112Z,4.60
2023-02-13T03:14:20.348Z,4.60
2023-02-13T03:17:07.318Z,4.60
2023-02-13T03:20:14.423Z,4.60
2023-02-13T03:22:54.792Z,4.60
2023-02-13T03:25:34.322Z,4.60
2023-02-13T03:28:28.291Z,4.60
2023-02-13T03:31:02.650Z,4.60
2023-02-13T03:33:54.311Z,4.60
2023-02-13T03:36:49.907Z,4.60
2023-02-13T03:39:30.907Z,4.60
2023-02-13T03:42:02.635Z,4.60
2023-02-13T03:44:34.403Z,4.60
2023-02-13T03:47:06.212Z,4.60
2023-02-13T03:49:56.245Z,4.60
2023-02-13T03:52:30.211Z,4.60
2023-02-13T03:55:21.296Z,4.60
2023-02-13T03:58:10.798Z,4.60
2023-02-13T04:00:43.759Z,4.60
2023-02-13T04:03:16.796Z,4.70
2023-02-13T04:05:48.708Z,4.70
2023-02-13T04:08:16.804Z,4.70
2023-02-13T04:10:51.568Z,4.60
2023-02-13T04:13:25.803Z,4.70
2023-02-13T04:15:58.536Z,4.60
2023-02-13T04:18:29.947Z,4.60
2023-02-13T04:20:58.218Z,4.70
2023-02-13T04:23:26.315Z,4.70
2023-02-13T04:25:58.218Z,4.70
2023-02-13T04:28:26.233Z,4.70
2023-02-13T04:30:54.324Z,4.80
2023-02-13T04:33:22.329Z,4.70
2023-02-13T04:35:50.361Z,4.70
2023-02-13T04:38:18.337Z,4.70
2023-02-13T04:40:46.210Z,4.70
2023-02-13T04:43:15.768Z,4.70
2023-02-13T04:45:43.760Z,4.70
2023-02-13T04:48:11.758Z,4.70
2023-02-13T04:50:39.697Z,4.80
2023-02-13T04:53:07.714Z,4.80
2023-02-13T04:55:36.137Z,4.80
2023-02-13T04:58:04.177Z,4.80
2023-02-13T05:00:33.485Z,4.80
2023-02-13T05:03:06.379Z,4.80
2023-02-13T05:05:34.597Z,4.80
2023-02-13T05:08:02.681Z,4.80
2023-02-13T05:10:30.901Z,4.80
2023-02-13T05:12:58.919Z,4.80
2023-02-13T05:15:27.309Z,4.80
2023-02-13T05:17:56.598Z,4.80
2023-02-13T05:20:24.707Z,4.80
2023-02-13T05:23:12.109Z,4.80
2023-02-13T05:25:42.981Z,4.80
2023-02-13T05:28:31.397Z,4.80
2023-02-13T05:30:59.986Z,4.80
2023-02-13T05:33:29.504Z,4.80
2023-02-13T05:35:57.415Z,4.80
2023-02-13T05:38:25.328Z,4.80
2023-02-13T05:40:53.221Z,4.80
2023-02-13T05:43:21.125Z,4.80
2023-02-13T05:45:49.234Z,4.80
2023-02-13T05:48:17.233Z,4.80
2023-02-13T05:50:47.520Z,4.80
2023-02-13T05:53:15.418Z,4.80
2023-02-13T05:55:43.309Z,4.80
2023-02-13T05:58:11.944Z,4.80
2023-02-13T06:00:39.941Z,4.80
2023-02-13T06:03:07.820Z,4.80
2023-02-13T06:05:35.734Z,4.80
2023-02-13T06:08:05.374Z,4.80
2023-02-13T06:10:33.285Z,4.80
2023-02-13T06:13:01.191Z,4.80
2023-02-13T06:15:29.277Z,4.80
2023-02-13T06:17:57.209Z,4.80
2023-02-13T06:20:25.220Z,4.80
2023-02-13T06:22:53.274Z,4.80
2023-02-13T06:25:22.725Z,4.80
2023-02-13T06:27:50.693Z,4.80
2023-02-13T06:30:19.384Z,4.80
2023-02-13T06:32:48.690Z,4.80
2023-02-13T06:35:16.770Z,4.80
2023-02-13T06:37:45.019Z,4.80
2023-02-13T06:40:14.878Z,4.90
2023-02-13T06:42:45.419Z,4.90
2023-02-13T06:45:14.652Z,4.80
2023-02-13T06:47:43.742Z,4.80
2023-02-13T06:50:13.353Z,4.80
2023-02-13T06:52:41.316Z,4.90
2023-02-13T06:55:09.509Z,4.90
2023-02-13T06:57:37.493Z,4.90
2023-02-13T07:00:08.376Z,4.90
2023-02-13T07:02:36.321Z,4.90
2023-02-13T07:05:04.615Z,4.90
2023-02-13T07:07:34.835Z,5.00
2023-02-13T07:10:02.969Z,4.90
2023-02-13T07:12:30.980Z,5.00
2023-02-13T07:14:58.840Z,5.00
2023-02-13T07:17:28.186Z,5.10
2023-02-13T07:19:56.127Z,5.10
2023-02-13T07:22:24.113Z,5.10
2023-02-13T07:24:52.039Z,5.20
2023-02-13T07:27:20.012Z,5.20
2023-02-13T07:29:47.984Z,5.30
2023-02-13T07:32:16.325Z,5.40
2023-02-13T07:35:00.579Z,5.40
2023-02-13T07:37:30.222Z,5.40
2023-02-13T07:39:58.319Z,5.50
2023-02-13T07:42:26.293Z,5.50
2023-02-13T07:44:54.258Z,5.50
2023-02-13T07:47:22.281Z,5.40
2023-02-13T07:49:51.640Z,5.40
2023-02-13T07:52:19.618Z,5.40
2023-02-13T07:54:48.280Z,5.40
2023-02-13T07:57:16.732Z,5.40
2023-02-13T07:59:44.677Z,5.40
2023-02-13T08:02:14.507Z,5.40
2023-02-13T08:04:46.241Z,5.50
2023-02-13T08:07:16.976Z,5.50
2023-02-13T08:10:05.189Z,5.60
2023-02-13T08:12:35.801Z,5.50
2023-02-13T08:15:03.816Z,5.60
2023-02-13T08:17:31.896Z,5.60
2023-02-13T08:19:59.847Z,5.60
2023-02-13T08:22:29.297Z,5.60
2023-02-13T08:24:57.254Z,5.60
2023-02-13T08:27:25.176Z,5.70
2023-02-13T08:29:53.300Z,5.80
2023-02-13T08:32:21.357Z,5.90
2023-02-13T08:34:49.307Z,6.00
2023-02-13T08:37:17.778Z,6.00
2023-02-13T08:39:47.126Z,6.00
2023-02-13T08:42:16.243Z,6.00
2023-02-13T08:44:44.982Z,6.00
2023-02-13T08:47:12.956Z,6.00
2023-02-13T08:49:40.878Z,5.90
2023-02-13T08:52:08.843Z,5.80
2023-02-13T08:54:36.966Z,5.80
2023-02-13T08:57:06.314Z,5.70
2023-02-13T08:59:34.212Z,5.70
2023-02-13T09:02:02.277Z,5.70
2023-02-13T09:04:30.261Z,5.70
2023-02-13T09:06:58.199Z,5.70
2023-02-13T09:09:26.120Z,5.70
2023-02-13T09:11:56.201Z,5.70
2023-02-13T09:14:25.531Z,5.70
2023-02-13T09:16:53.529Z,5.70
2023-02-13T09:19:21.586Z,5.80
2023-02-13T09:21:49.533Z,5.70
2023-02-13T09:24:17.472Z,5.80
2023-02-13T09:26:45.472Z,5.80
2023-02-13T09:29:13.424Z,5.90
2023-02-13T09:31:42.859Z,5.90
2023-02-13T09:34:11.098Z,6.00
2023-02-13T09:36:39.008Z,6.00
2023-02-13T09:39:06.981Z,6.00
2023-02-13T09:41:38.577Z,6.00
2023-02-13T09:44:11.402Z,6.10
2023-02-13T09:46:41.953Z,6.00
2023-02-13T09:49:13.645Z,6.00
2023-02-13T09:51:43.813Z,6.10
2023-02-13T09:54:19.076Z,6.10
2023-02-13T09:57:00.475Z,6.10
2023-02-13T09:59:38.456Z,6.20
2023-02-13T10:02:26.335Z,6.30
2023-02-13T10:05:03.499Z,6.30
2023-02-13T10:07:38.972Z,6.40
2023-02-13T10:10:19.995Z,6.40
2023-02-13T10:13:02.706Z,6.50
2023-02-13T10:15:40.626Z,6.40
2023-02-13T10:18:14.600Z,6.40
2023-02-13T10:20:47.617Z,6.30
2023-02-13T10:23:23.436Z,6.20
2023-02-13T10:25:56.548Z,6.10
2023-02-13T10:28:32.006Z,6.00
2023-02-13T10:31:06.357Z,5.90
2023-02-13T10:33:42.566Z,5.90
2023-02-13T10:36:19.260Z,5.80
2023-02-13T10:38:58.882Z,5.90
2023-02-13T10:41:37.984Z,5.90
2023-02-13T10:44:20.406Z,5.90
2023-02-13T10:46:57.326Z,6.00
2023-02-13T10:49:47.185Z,6.00
2023-02-13T10:52:27.026Z,6.10
2023-02-13T10:55:16.181Z,6.20
2023-02-13T10:58:10.973Z,6.30
2023-02-13T11:00:47.365Z,6.40
2023-02-13T11:03:20.052Z,6.40
2023-02-13T11:05:50.435Z,6.40
2023-02-13T11:08:22.278Z,6.50
2023-02-13T11:10:50.714Z,6.40
2023-02-13T11:13:21.253Z,6.40
2023-02-13T11:16:01.748Z,6.30
2023-02-13T11:18:34.075Z,6.20
2023-02-13T11:21:11.281Z,6.20
2023-02-13T11:23:44.876Z,6.10
2023-02-13T11:26:16.496Z,6.10
2023-02-13T11:28:54.510Z,6.10
2023-02-13T11:31:26.977Z,6.00
2023-02-13T11:33:56.951Z,6.10
2023-02-13T11:36:30.443Z,6.00
2023-02-13T11:39:00.606Z,6.10
2023-02-13T11:41:30.077Z,6.00
2023-02-13T11:44:02.115Z,6.00
2023-02-13T11:46:31.237Z,6.00
2023-02-13T11:49:04.282Z,5.90
2023-02-13T11:51:45.982Z,5.90
2023-02-13T11:54:26.841Z,6.00
2023-02-13T11:57:05.482Z,6.00
2023-02-13T11:59:40.925Z,6.00
2023-02-13T12:02:17.863Z,6.10
2023-02-13T12:04:46.747Z,6.20
2023-02-13T12:07:19.961Z,6.20
2023-02-13T12:09:51.435Z,6.30
2023-02-13T12:12:26.628Z,6.40
2023-02-13T12:14:54.632Z,6.40
2023-02-13T12:17:31.770Z,6.50
2023-02-13T12:20:01.145Z,6.60
2023-02-13T12:22:35.044Z,6.80
2023-02-13T12:25:28.518Z,6.90
2023-02-13T12:28:13.236Z,7.00
2023-02-13T12:31:00.033Z,6.80
2023-02-13T12:33:44.268Z,6.70
2023-02-13T12:36:18.198Z,6.60
2023-02-13T12:39:06.414Z,6.50
2023-02-13T12:41:42.450Z,6.50
2023-02-13T12:44:34.847Z,6.50
2023-02-13T12:47:11.668Z,6.60
2023-02-13T12:50:13.920Z,6.60
2023-02-13T12:53:04.986Z,6.60
2023-02-13T12:56:02.533Z,6.70
2023-02-13T12:58:50.727Z,6.70
2023-02-13T13:01:27.280Z,6.70
2023-02-13T13:04:06.944Z,6.80
2023-02-13T13:07:04.280Z,6.90
2023-02-13T13:10:02.020Z,7.00
2023-02-13T13:12:39.372Z,7.20
2023-02-13T13:15:14.516Z,7.30
2023-02-13T13:17:55.368Z,7.40
2023-02-13T13:20:47.419Z,7.50
2023-02-13T13:23:21.568Z,7.60
2023-02-13T13:25:59.455Z,7.60
2023-02-13T13:28:34.224Z,7.50
2023-02-13T13:31:03.865Z,7.40
2023-02-13T13:33:34.186Z,7.20
2023-02-13T13:36:08.658Z,7.00
2023-02-13T13:38:51.684Z,7.00
2023-02-13T13:41:27.048Z,7.00
2023-02-13T13:44:26.274Z,7.00
2023-02-13T13:47:02.038Z,6.90
2023-02-13T13:49:39.074Z,6.90
2023-02-13T13:52:28.824Z,6.90
2023-02-13T13:55:00.422Z,6.80
2023-02-13T13:57:28.532Z,6.80
2023-02-13T14:00:23.413Z,6.70
2023-02-13T14:02:52.893Z,6.70
2023-02-13T14:05:25.984Z,6.60
2023-02-13T14:07:55.996Z,6.60
2023-02-13T14:11:06.812Z,6.50
2023-02-13T14:13:37.912Z,6.50
2023-02-13T14:16:11.732Z,6.50
2023-02-13T14:18:46.837Z,6.50
2023-02-13T14:21:25.646Z,6.40
2023-02-13T14:23:54.096Z,6.40
2023-02-13T14:26:38.908Z,6.40
2023-02-13T14:29:26.984Z,6.40
2023-02-13T14:32:05.176Z,6.40
2023-02-13T14:34:36.562Z,6.40
2023-02-13T14:37:29.757Z,6.40
2023-02-13T14:40:51.259Z,6.50
2023-02-13T14:43:37.966Z,6.50
2023-02-13T14:46:18.119Z,6.50
2023-02-13T14:48:52.898Z,6.50
2023-02-13T14:51:28.744Z,6.50
2023-02-13T14:54:03.892Z,6.50
2023-02-13T14:56:33.401Z,6.40
2023-02-13T14:59:11.918Z,6.40
2023-02-13T15:01:50.635Z,6.40
2023-02-13T15:04:26.991Z,6.40
2023-02-13T15:06:56.777Z,6.40
2023-02-13T15:09:33.592Z,6.40
2023-02-13T15:12:02.210Z,6.40
2023-02-13T15:14:35.473Z,6.40
2023-02-13T15:17:08.060Z,6.40
2023-02-13T15:19:37.997Z,6.40
2023-02-13T15:22:07.548Z,6.30
2023-02-13T15:24:45.979Z,6.30
2023-02-13T15:27:20.437Z,6.30
2023-02-13T15:29:55.477Z,6.30
2023-02-13T15:32:30.246Z,6.20
2023-02-13T15:34:58.368Z,6.20
2023-02-13T15:37:28.864Z,6.20
2023-02-13T15:40:15.098Z,6.20
2023-02-13T15:42:43.050Z,6.10
2023-02-13T15:45:16.711Z,6.10
2023-02-13T15:47:46.210Z,6.10
2023-02-13T15:50:27.968Z,6.10
2023-02-13T15:52:56.155Z,6.10
2023-02-13T15:55:28.280Z,6.10
2023-02-13T15:58:00.001Z,6.10
2023-02-13T16:00:30.167Z,6.10
2023-02-13T16:03:00.355Z,6.10
2023-02-13T16:05:39.990Z,6.10
2023-02-13T16:08:31.542Z,6.10
2023-02-13T16:11:25.192Z,6.10
2023-02-13T16:14:15.349Z,6.10
2023-02-13T16:16:48.222Z,6.00
2023-02-13T16:19:26.144Z,6.00
2023-02-13T16:21:55.811Z,6.00
2023-02-13T16:24:25.305Z,6.00
2023-02-13T16:26:55.020Z,6.00
2023-02-13T16:29:26.427Z,6.00
2023-02-13T16:32:03.692Z,6.00
2023-02-13T16:34:32.923Z,6.00
2023-02-13T16:37:00.867Z,6.00
2023-02-13T16:39:31.498Z,6.00
2023-02-13T16:42:02.007Z,6.00
2023-02-13T16:44:31.489Z,6.00
2023-02-13T16:47:01.921Z,5.90
2023-02-13T16:49:32.718Z,5.90
2023-02-13T16:52:09.352Z,6.00
2023-02-13T16:54:40.853Z,6.00
2023-02-13T16:57:31.695Z,6.00
2023-02-13T17:00:04.012Z,6.00
2023-02-13T17:02:33.794Z,6.00
2023-02-13T17:05:20.273Z,6.00
2023-02-13T17:07:51.126Z,6.00
2023-02-13T17:10:21.802Z,6.00
2023-02-13T17:12:52.135Z,5.90
2023-02-13T17:15:22.568Z,5.90
2023-02-13T17:17:51.641Z,5.90
2023-02-13T17:20:25.536Z,6.00
2023-02-13T17:22:55.266Z,5.90
2023-02-13T17:25:25.028Z,5.90
2023-02-13T17:27:59.930Z,5.90
2023-02-13T17:30:30.025Z,5.90
2023-02-13T17:33:00.479Z,5.90
2023-02-13T17:35:28.635Z,5.90
2023-02-13T17:37:56.724Z,5.90
2023-02-13T17:40:29.397Z,5.90
2023-02-13T17:43:00.226Z,5.90
2023-02-13T17:45:29.933Z,5.90
2023-02-13T17:47:58.099Z,5.90
2023-02-13T17:50:26.922Z,5.90
2023-02-13T17:52:55.753Z,5.90
2023-02-13T17:55:25.607Z,5.90
2023-02-13T17:57:56.421Z,5.90
2023-02-13T18:00:27.955Z,5.90
2023-02-13T18:02:56.615Z,5.90
2023-02-13T18:05:25.026Z,5.80
2023-02-13T18:07:53.265Z,5.80
2023-02-13T18:10:23.136Z,5.80
2023-02-13T18:12:52.039Z,5.80
2023-02-13T18:15:20.182Z,5.80
2023-02-13T18:17:49.945Z,5.80
2023-02-13T18:20:20.874Z,5.80
2023-02-13T18:22:50.493Z,5.80
2023-02-13T18:25:20.839Z,5.80
2023-02-13T18:27:49.150Z,5.80
2023-02-13T18:30:19.324Z,5.80
2023-02-13T18:32:54.723Z,5.70
2023-02-13T18:35:23.823Z,5.80
2023-02-13T18:37:52.483Z,5.70
2023-02-13T18:40:20.633Z,5.70
2023-02-13T18:42:51.091Z,5.70
2023-02-13T18:45:19.469Z,5.70
2023-02-13T18:47:49.252Z,5.70
2023-02-13T18:50:17.378Z,5.70
2023-02-13T18:52:46.908Z,5.70
2023-02-13T18:55:14.877Z,5.60
2023-02-13T18:57:45.553Z,5.60
2023-02-13T19:00:14.808Z,5.60
2023-02-13T19:02:44.246Z,5.60
2023-02-13T19:05:13.898Z,5.60
2023-02-13T19:07:42.054Z,5.60
2023-02-13T19:10:10.922Z,5.60
2023-02-13T19:12:38.934Z,5.60
2023-02-13T19:15:07.386Z,5.60
2023-02-13T19:17:35.848Z,5.60
2023-02-13T19:20:04.196Z,5.60
2023-02-13T19:22:33.550Z,5.60
2023-02-13T19:25:01.782Z,5.60
2023-02-13T19:27:29.793Z,5.60
2023-02-13T19:29:57.997Z,5.60
2023-02-13T19:32:26.087Z,5.60
2023-02-13T19:34:54.072Z,5.60
2023-02-13T19:37:22.283Z,5.60
2023-02-13T19:39:52.226Z,5.60
2023-02-13T19:42:20.440Z,5.60
2023-02-13T19:44:48.452Z,5.60
2023-02-13T19:47:16.427Z,5.50
2023-02-13T19:49:44.289Z,5.50
2023-02-13T19:52:12.214Z,5.50
2023-02-13T19:54:40.610Z,5.60
2023-02-13T19:57:09.899Z,5.50
2023-02-13T19:59:37.998Z,5.50
2023-02-13T20:02:06.013Z,5.50
2023-02-13T20:04:37.648Z,5.60
2023-02-13T20:07:06.094Z,5.60
2023-02-13T20:09:35.070Z,5.50
2023-02-13T20:12:03.113Z,5.50
2023-02-13T20:14:32.400Z,5.50
2023-02-13T20:17:00.658Z,5.50
2023-02-13T20:19:28.957Z,5.50
2023-02-13T20:21:56.914Z,5.50
2023-02-13T20:24:25.036Z,5.50
2023-02-13T20:26:55.318Z,5.40
2023-02-13T20:29:23.229Z,5.50
2023-02-13T20:31:54.008Z,5.50
2023-02-13T20:34:22.164Z,5.40
2023-02-13T20:36:50.322Z,5.40
2023-02-13T20:39:18.490Z,5.40
2023-02-13T20:41:50.499Z,5.40
2023-02-13T20:44:20.898Z,5.40
2023-02-13T20:46:49.282Z,5.40
2023-02-13T20:49:21.789Z,5.40
2023-02-13T20:51:50.118Z,5.40
2023-02-13T20:54:18.095Z,5.40
2023-02-13T20:56:47.691Z,5.40
2023-02-13T20:59:15.818Z,5.40
2023-02-13T21:01:45.635Z,5.30
2023-02-13T21:04:14.633Z,5.40
2023-02-13T21:06:44.018Z,5.30
2023-02-13T21:09:12.597Z,5.30
2023-02-13T21:11:43.386Z,5.30
2023-02-13T21:14:12.504Z,5.30
2023-02-13T21:16:41.774Z,5.30
2023-02-13T21:19:14.407Z,5.30
2023-02-13T21:21:44.964Z,5.30
2023-02-13T21:24:14.614Z,5.30
2023-02-13T21:26:42.942Z,5.30
2023-02-13T21:29:10.915Z,5.30
2023-02-13T21:31:44.014Z,5.20
2023-02-13T21:34:13.487Z,5.20
2023-02-13T21:36:42.907Z,5.30
2023-02-13T21:39:12.475Z,5.30
2023-02-13T21:41:41.683Z,5.30
2023-02-13T21:44:13.341Z,5.30
2023-02-13T21:46:42.418Z,5.30
2023-02-13T21:49:13.257Z,5.30
2023-02-13T21:51:41.278Z,5.30
2023-02-13T21:54:11.483Z,5.30
2023-02-13T21:56:41.176Z,5.30
2023-02-13T21:59:09.485Z,5.20
2023-02-13T22:01:48.435Z,5.20
2023-02-13T22:04:18.924Z,5.20
2023-02-13T22:06:50.977Z,5.20
2023-02-13T22:09:21.577Z,5.20
2023-02-13T22:11:51.782Z,5.20
2023-02-13T22:14:20.151Z,5.20
2023-02-13T22:16:51.305Z,5.20
2023-02-13T22:19:20.302Z,5.20
2023-02-13T22:21:48.263Z,5.20
2023-02-13T22:24:16.360Z,5.20
2023-02-13T22:26:46.262Z,5.20
2023-02-13T22:29:17.826Z,5.20
2023-02-13T22:31:46.519Z,5.20
2023-02-13T22:34:15.099Z,5.20
2023-02-13T22:36:43.178Z,5.20
2023-02-13T22:39:12.763Z,5.20
2023-02-13T22:41:41.205Z,5.30
2023-02-13T22:44:10.555Z,5.20
2023-02-13T22:46:38.914Z,5.20
2023-02-13T22:49:06.871Z,5.20
2023-02-13T22:51:37.021Z,5.20
2023-02-13T22:54:05.814Z,5.20
2023-02-13T22:56:34.635Z,5.20
2023-02-13T22:59:02.706Z,5.20
2023-02-13T23:01:31.966Z,5.20
2023-02-13T23:04:00.050Z,5.20
2023-02-13T23:06:28.514Z,5.20
2023-02-13T23:08:57.622Z,5.20
2023-02-13T23:11:45.896Z,5.20
2023-02-13T23:14:14.343Z,5.20
2023-02-13T23:17:01.321Z,5.10
2023-02-13T23:19:30.042Z,5.20
2023-02-13T23:21:58.202Z,5.20
2023-02-13T23:24:26.198Z,5.10
2023-02-13T23:26:54.177Z,5.10
2023-02-13T23:29:22.517Z,5.10
2023-02-13T23:31:52.054Z,5.10
2023-02-13T23:34:21.517Z,5.20
2023-02-13T23:36:49.518Z,5.10
2023-02-13T23:39:17.591Z,5.10
2023-02-13T23:41:45.475Z,5.10
2023-02-13T23:44:13.344Z,5.10
2023-02-13T23:46:41.278Z,5.10
2023-02-13T23:49:10.607Z,5.00
2023-02-13T23:51:38.638Z,5.10
2023-02-13T23:54:06.600Z,5.00
2023-02-13T23:56:34.651Z,5.00
2023-02-13T23:59:02.551Z,5.10
